createdAt,value
2023-05-03T00:00:55.718Z,6.70
2023-05-03T00:01:55.756Z,4.80
2023-05-03T00:02:55.697Z,3.70
2023-05-03T00:03:55.655Z,3.50
2023-05-03T00:04:55.831Z,3.60
2023-05-03T00:05:55.683Z,4.00
2023-05-03T00:06:55.680Z,3.40
2023-05-03T00:07:55.602Z,3.50
2023-05-03T00:08:55.606Z,3.50
2023-05-03T00:09:55.552Z,3.60
2023-05-03T00:10:55.574Z,3.70
2023-05-03T00:11:55.548Z,3.90
2023-05-03T00:12:55.559Z,3.70
2023-05-03T00:13:55.522Z,3.70
2023-05-03T00:14:55.489Z,3.30
2023-05-03T00:15:55.508Z,3.20
2023-05-03T00:16:55.515Z,3.80
2023-05-03T00:17:55.538Z,3.70
2023-05-03T00:18:55.464Z,3.70
2023-05-03T00:19:55.449Z,3.70
2023-05-03T00:20:55.461Z,3.70
2023-05-03T00:21:55.445Z,3.30
2023-05-03T00:22:55.418Z,3.70
2023-05-03T00:23:55.393Z,3.50
2023-05-03T00:24:55.426Z,3.50
2023-05-03T00:25:55.397Z,3.30
2023-05-03T00:26:55.375Z,3.30
2023-05-03T00:27:55.337Z,3.50
2023-05-03T00:28:55.395Z,3.20
2023-05-03T00:29:55.345Z,3.90
2023-05-03T00:30:55.664Z,3.60
2023-05-03T00:31:55.338Z,3.90
2023-05-03T00:32:55.347Z,3.80
2023-05-03T00:33:55.344Z,3.70
2023-05-03T00:34:55.320Z,3.40
2023-05-03T00:35:55.337Z,3.50
2023-05-03T00:36:55.275Z,3.50
2023-05-03T00:37:55.264Z,3.70
2023-05-03T00:38:55.248Z,3.40
2023-05-03T00:39:55.229Z,3.70
2023-05-03T00:40:55.246Z,3.80
2023-05-03T00:41:55.240Z,3.90
2023-05-03T00:42:55.177Z,4.00
2023-05-03T00:43:55.172Z,3.60
2023-05-03T00:44:55.952Z,3.70
2023-05-03T00:45:59.394Z,3.70
2023-05-03T00:46:55.180Z,4.40
2023-05-03T00:47:55.196Z,3.40
2023-05-03T00:48:55.113Z,3.80
2023-05-03T00:49:55.139Z,3.70
2023-05-03T00:50:55.153Z,3.70
2023-05-03T00:51:55.134Z,3.90
2023-05-03T00:52:55.097Z,3.70
2023-05-03T00:53:55.103Z,3.30
2023-05-03T00:54:55.064Z,3.80
2023-05-03T00:55:55.102Z,3.70
2023-05-03T00:56:55.033Z,3.60
2023-05-03T00:57:55.006Z,3.80
2023-05-03T00:58:55.050Z,3.60
2023-05-03T00:59:55.039Z,3.80
2023-05-03T01:00:55.000Z,4.20
2023-05-03T01:01:55.020Z,4.30
2023-05-03T01:02:55.075Z,3.60
2023-05-03T01:03:55.157Z,4.00
2023-05-03T01:04:54.936Z,3.70
2023-05-03T01:05:54.997Z,4.30
2023-05-03T01:06:54.978Z,3.70
2023-05-03T01:07:54.977Z,4.80
2023-05-03T01:08:54.916Z,4.40
2023-05-03T01:09:54.894Z,4.70
2023-05-03T01:10:54.905Z,3.90
2023-05-03T01:11:54.909Z,4.40
2023-05-03T01:12:54.847Z,4.30
2023-05-03T01:13:54.839Z,4.40
2023-05-03T01:14:54.907Z,4.30
2023-05-03T01:15:54.902Z,4.50
2023-05-03T01:16:54.813Z,4.20
2023-05-03T01:17:54.845Z,4.50
2023-05-03T01:18:54.787Z,4.60
2023-05-03T01:19:54.776Z,4.00
2023-05-03T01:20:55.091Z,4.20
2023-05-03T01:21:54.757Z,4.10
2023-05-03T01:22:54.726Z,4.80
2023-05-03T01:23:54.747Z,4.50
2023-05-03T01:24:54.737Z,4.10
2023-05-03T01:25:54.742Z,4.70
2023-05-03T01:26:54.704Z,4.60
2023-05-03T01:27:54.684Z,4.30
2023-05-03T01:28:54.698Z,4.60
2023-05-03T01:29:54.660Z,4.70
2023-05-03T01:30:54.667Z,4.60
2023-05-03T01:31:54.716Z,4.50
2023-05-03T01:32:54.705Z,4.20
2023-05-03T01:33:54.687Z,4.60
2023-05-03T01:34:54.605Z,4.60
2023-05-03T01:35:54.651Z,4.50
2023-05-03T01:36:54.585Z,4.80
2023-05-03T01:37:54.570Z,5.00
2023-05-03T01:38:54.562Z,5.00
2023-05-03T01:39:54.567Z,4.70
2023-05-03T01:40:54.588Z,5.00
2023-05-03T01:42:00.587Z,4.90
2023-05-03T01:42:54.533Z,4.70
2023-05-03T01:43:54.508Z,4.20
2023-05-03T01:44:54.504Z,4.60
2023-05-03T01:45:54.683Z,4.50
2023-05-03T01:46:54.478Z,4.20
2023-05-03T01:47:54.517Z,4.70
2023-05-03T01:48:54.474Z,5.00
2023-05-03T01:49:54.462Z,4.40
2023-05-03T01:50:54.460Z,4.80
2023-05-03T01:51:54.397Z,5.10
2023-05-03T01:52:54.475Z,5.00
2023-05-03T01:53:54.398Z,4.80
2023-05-03T01:54:54.432Z,5.20
2023-05-03T01:55:54.490Z,5.10
2023-05-03T01:56:54.356Z,5.20
2023-05-03T01:57:54.336Z,4.80
2023-05-03T01:58:54.347Z,4.80
2023-05-03T01:59:54.303Z,4.80
2023-05-03T02:00:54.367Z,5.10
2023-05-03T02:01:54.323Z,4.80
2023-05-03T02:02:54.339Z,4.50
2023-05-03T02:03:54.331Z,4.90
2023-05-03T02:04:54.470Z,4.80
2023-05-03T02:05:54.324Z,5.20
2023-05-03T02:06:54.233Z,5.80
2023-05-03T02:07:54.254Z,4.90
2023-05-03T02:08:54.266Z,5.00
2023-05-03T02:09:54.269Z,5.00
2023-05-03T02:10:54.217Z,4.70
2023-05-03T02:11:54.238Z,4.70
2023-05-03T02:12:54.216Z,5.10
2023-05-03T02:13:55.061Z,5.00
2023-05-03T02:14:54.164Z,5.10
2023-05-03T02:15:54.176Z,5.20
2023-05-03T02:16:54.156Z,5.50
2023-05-03T02:17:54.230Z,5.90
2023-05-03T02:18:54.108Z,5.50
2023-05-03T02:19:54.080Z,5.50
2023-05-03T02:20:54.154Z,5.60
2023-05-03T02:21:54.069Z,5.30
2023-05-03T02:22:54.089Z,5.50
2023-05-03T02:23:55.011Z,5.30
2023-05-03T02:24:54.075Z,5.30
2023-05-03T02:25:54.080Z,5.40
2023-05-03T02:26:54.031Z,5.60
2023-05-03T02:27:54.542Z,5.40
2023-05-03T02:28:54.086Z,5.60
2023-05-03T02:29:53.966Z,5.70
2023-05-03T02:30:54.037Z,5.50
2023-05-03T02:31:53.992Z,5.90
2023-05-03T02:32:54.007Z,5.30
2023-05-03T02:33:53.933Z,5.20
2023-05-03T02:34:53.933Z,5.80
2023-05-03T02:35:53.997Z,5.40
2023-05-03T02:36:53.908Z,5.10
2023-05-03T02:37:53.876Z,5.00
2023-05-03T02:38:53.917Z,5.60
2023-05-03T02:39:53.888Z,5.90
2023-05-03T02:40:54.573Z,5.40
2023-05-03T02:41:53.892Z,5.70
2023-05-03T02:42:53.847Z,5.30
2023-05-03T02:43:53.843Z,5.70
2023-05-03T02:44:53.854Z,4.80
2023-05-03T02:45:53.877Z,4.50
2023-05-03T02:46:53.821Z,4.50
2023-05-03T02:47:53.848Z,5.10
2023-05-03T02:48:53.789Z,5.30
2023-05-03T02:49:53.802Z,5.10
2023-05-03T02:50:53.762Z,5.00
2023-05-03T02:51:53.738Z,5.10
2023-05-03T02:52:53.741Z,4.80
2023-05-03T02:53:53.723Z,4.70
2023-05-03T02:54:53.706Z,5.10
2023-05-03T02:55:53.774Z,4.90
2023-05-03T02:56:53.661Z,5.10
2023-05-03T02:57:53.693Z,5.40
2023-05-03T02:58:53.637Z,5.10
2023-05-03T02:59:53.657Z,5.30
2023-05-03T03:00:53.694Z,5.50
2023-05-03T03:01:53.733Z,5.20
2023-05-03T03:02:53.775Z,5.00
2023-05-03T03:03:53.810Z,5.70
2023-05-03T03:04:53.602Z,5.50
2023-05-03T03:05:53.610Z,5.10
2023-05-03T03:06:53.696Z,4.90
2023-05-03T03:07:53.554Z,5.10
2023-05-03T03:08:53.548Z,5.70
2023-05-03T03:09:53.518Z,5.30
2023-05-03T03:10:53.555Z,5.70
2023-05-03T03:11:53.526Z,5.80
2023-05-03T03:12:53.531Z,5.20
2023-05-03T03:13:53.480Z,5.50
2023-05-03T03:14:53.487Z,6.00
2023-05-03T03:15:53.534Z,5.50
2023-05-03T03:16:53.473Z,5.90
2023-05-03T03:17:53.473Z,5.90
2023-05-03T03:18:53.410Z,6.10
2023-05-03T03:19:53.408Z,5.50
2023-05-03T03:20:53.499Z,5.70
2023-05-03T03:21:53.413Z,6.00
2023-05-03T03:22:53.379Z,5.70
2023-05-03T03:23:53.387Z,5.40
2023-05-03T03:24:53.440Z,5.60
2023-05-03T03:25:53.583Z,5.70
2023-05-03T03:26:53.380Z,5.10
2023-05-03T03:27:53.360Z,5.50
2023-05-03T03:28:53.317Z,5.50
2023-05-03T03:29:53.334Z,5.60
2023-05-03T03:30:53.328Z,5.20
2023-05-03T03:31:53.376Z,5.40
2023-05-03T03:32:53.346Z,5.50
2023-05-03T03:33:53.255Z,5.60
2023-05-03T03:34:53.256Z,6.00
2023-05-03T03:35:53.265Z,5.80
2023-05-03T03:36:53.270Z,5.90
2023-05-03T03:37:53.243Z,5.80
2023-05-03T03:38:53.222Z,5.80
2023-05-03T03:39:53.237Z,5.70
2023-05-03T03:40:53.229Z,5.70
2023-05-03T03:41:53.196Z,5.60
2023-05-03T03:42:53.227Z,5.90
2023-05-03T03:43:53.150Z,5.50
2023-05-03T03:44:53.140Z,6.60
2023-05-03T03:45:53.147Z,6.50
2023-05-03T03:46:53.198Z,6.30
2023-05-03T03:47:53.837Z,6.20
2023-05-03T03:48:53.123Z,5.80
2023-05-03T03:49:53.062Z,5.40
2023-05-03T03:50:53.115Z,5.50
2023-05-03T03:51:53.069Z,5.00
2023-05-03T03:52:53.077Z,5.40
2023-05-03T03:53:53.024Z,5.20
2023-05-03T03:54:53.026Z,5.50
2023-05-03T03:55:53.083Z,5.10
2023-05-03T03:56:53.014Z,5.00
2023-05-03T03:57:53.020Z,5.40
2023-05-03T03:58:53.028Z,5.30
2023-05-03T03:59:52.976Z,5.20
2023-05-03T04:00:53.013Z,5.10
2023-05-03T04:01:52.990Z,5.10
2023-05-03T04:02:53.125Z,5.90
2023-05-03T04:03:53.248Z,5.90
2023-05-03T04:04:52.970Z,5.40
2023-05-03T04:05:52.905Z,5.80
2023-05-03T04:06:52.992Z,5.80
2023-05-03T04:07:52.957Z,6.20
2023-05-03T04:08:52.900Z,5.40
2023-05-03T04:09:52.862Z,5.80
2023-05-03T04:10:52.938Z,5.60
2023-05-03T04:11:52.832Z,5.50
2023-05-03T04:12:52.885Z,5.70
2023-05-03T04:13:52.809Z,5.90
2023-05-03T04:14:52.814Z,5.70
2023-05-03T04:15:52.809Z,6.40
2023-05-03T04:16:52.845Z,6.40
2023-05-03T04:17:52.850Z,6.20
2023-05-03T04:18:52.788Z,5.90
2023-05-03T04:19:52.753Z,6.30
2023-05-03T04:20:52.752Z,6.10
2023-05-03T04:21:52.710Z,6.70
2023-05-03T04:22:52.742Z,6.60
2023-05-03T04:23:52.708Z,6.30
2023-05-03T04:24:52.736Z,6.40
2023-05-03T04:25:52.737Z,6.40
2023-05-03T04:26:52.679Z,6.40
2023-05-03T04:27:52.672Z,6.40
2023-05-03T04:28:52.652Z,6.90
2023-05-03T04:29:52.624Z,6.20
2023-05-03T04:30:52.712Z,6.80
2023-05-03T04:31:52.615Z,6.90
2023-05-03T04:32:52.652Z,6.70
2023-05-03T04:33:52.628Z,6.70
2023-05-03T04:34:53.977Z,5.70
2023-05-03T04:35:52.657Z,6.00
2023-05-03T04:36:52.590Z,6.00
2023-05-03T04:37:52.595Z,6.40
2023-05-03T04:38:52.563Z,6.00
2023-05-03T04:39:52.501Z,6.90
2023-05-03T04:40:52.545Z,6.30
2023-05-03T04:41:52.468Z,7.00
2023-05-03T04:42:52.479Z,6.50
2023-05-03T04:43:52.574Z,7.00
2023-05-03T04:44:52.458Z,6.80
2023-05-03T04:45:52.523Z,6.50
2023-05-03T04:46:52.504Z,7.00
2023-05-03T04:47:52.481Z,6.50
2023-05-03T04:48:52.486Z,6.30
2023-05-03T04:49:52.405Z,6.00
2023-05-03T04:50:52.444Z,6.00
2023-05-03T04:51:53.408Z,6.60
2023-05-03T04:52:52.366Z,6.50
2023-05-03T04:53:52.374Z,6.40
2023-05-03T04:54:52.328Z,6.10
2023-05-03T04:55:52.396Z,6.70
2023-05-03T04:56:52.369Z,6.70
2023-05-03T04:57:52.311Z,5.90
2023-05-03T04:58:52.326Z,6.40
2023-05-03T04:59:52.289Z,6.20
2023-05-03T05:00:52.322Z,6.20
2023-05-03T05:01:52.335Z,6.70
2023-05-03T05:02:52.319Z,5.90
2023-05-03T05:03:52.379Z,5.90
2023-05-03T05:04:52.249Z,6.60
2023-05-03T05:05:52.268Z,6.20
2023-05-03T05:06:52.234Z,5.60
2023-05-03T05:07:52.186Z,6.30
2023-05-03T05:08:52.168Z,6.40
2023-05-03T05:09:52.177Z,6.40
2023-05-03T05:10:52.392Z,6.30
2023-05-03T05:11:52.829Z,5.90
2023-05-03T05:12:52.236Z,6.20
2023-05-03T05:13:52.182Z,5.90
2023-05-03T05:14:52.124Z,5.90
2023-05-03T05:15:52.636Z,6.50
2023-05-03T05:16:52.105Z,5.60
2023-05-03T05:17:52.142Z,6.30
2023-05-03T05:18:52.083Z,6.10
2023-05-03T05:19:52.054Z,6.00
2023-05-03T05:20:52.078Z,5.80
2023-05-03T05:21:52.033Z,5.90
2023-05-03T05:22:52.051Z,5.90
2023-05-03T05:23:52.064Z,5.40
2023-05-03T05:24:52.024Z,6.00
2023-05-03T05:25:52.036Z,6.00
2023-05-03T05:26:52.097Z,5.70
2023-05-03T05:27:51.997Z,5.80
2023-05-03T05:28:52.000Z,6.60
2023-05-03T05:29:51.938Z,6.00
2023-05-03T05:30:51.975Z,6.00
2023-05-03T05:31:51.989Z,6.80
2023-05-03T05:32:51.949Z,6.70
2023-05-03T05:33:51.891Z,6.70
2023-05-03T05:34:51.901Z,6.40
2023-05-03T05:35:51.916Z,6.50
2023-05-03T05:36:51.842Z,6.20
2023-05-03T05:37:51.907Z,6.20
2023-05-03T05:38:51.845Z,5.80
2023-05-03T05:39:51.848Z,6.70
2023-05-03T05:40:51.881Z,7.20
2023-05-03T05:41:51.843Z,6.40
2023-05-03T05:42:51.818Z,7.00
2023-05-03T05:43:51.765Z,6.40
2023-05-03T05:44:51.760Z,8.00
2023-05-03T05:45:51.768Z,7.30
2023-05-03T05:46:51.769Z,6.90
2023-05-03T05:47:51.731Z,6.10
2023-05-03T05:48:51.700Z,5.80
2023-05-03T05:49:51.691Z,6.60
2023-05-03T05:50:51.710Z,6.10
2023-05-03T05:51:51.679Z,6.10
2023-05-03T05:52:51.716Z,6.10
2023-05-03T05:53:51.655Z,5.90
2023-05-03T05:54:51.641Z,5.70
2023-05-03T05:55:51.659Z,5.90
2023-05-03T05:56:51.615Z,5.20
2023-05-03T05:57:51.628Z,5.70
2023-05-03T05:58:51.627Z,5.50
2023-05-03T05:59:52.661Z,5.20
2023-05-03T06:00:51.597Z,5.20
2023-05-03T06:01:51.580Z,5.30
2023-05-03T06:02:51.615Z,4.90
2023-05-03T06:03:51.544Z,4.70
2023-05-03T06:04:51.554Z,4.60
2023-05-03T06:05:51.524Z,4.30
2023-05-03T06:06:51.623Z,4.40
2023-05-03T06:07:51.501Z,4.60
2023-05-03T06:08:51.514Z,4.60
2023-05-03T06:09:51.479Z,4.40
2023-05-03T06:10:51.457Z,4.70
2023-05-03T06:11:51.449Z,4.70
2023-05-03T06:12:51.454Z,5.20
2023-05-03T06:13:51.434Z,4.50
2023-05-03T06:15:01.855Z,4.50
2023-05-03T06:15:51.438Z,4.40
2023-05-03T06:16:51.468Z,4.10
2023-05-03T06:17:51.442Z,4.20
2023-05-03T06:18:51.380Z,4.40
2023-05-03T06:19:51.363Z,3.90
2023-05-03T06:20:51.395Z,4.20
2023-05-03T06:21:51.340Z,3.90
2023-05-03T06:22:51.331Z,4.10
2023-05-03T06:23:51.319Z,3.60
2023-05-03T06:24:51.314Z,3.80
2023-05-03T06:25:51.317Z,3.90
2023-05-03T06:26:51.282Z,3.00
2023-05-03T06:27:51.278Z,4.10
2023-05-03T06:28:51.254Z,3.60
2023-05-03T06:29:51.277Z,3.90
2023-05-03T06:30:51.324Z,3.70
2023-05-03T06:31:51.252Z,4.00
2023-05-03T06:32:51.330Z,4.20
2023-05-03T06:33:51.231Z,3.70
2023-05-03T06:34:51.192Z,3.60
2023-05-03T06:35:51.261Z,3.80
2023-05-03T06:36:51.160Z,4.20
2023-05-03T06:37:51.156Z,4.00
2023-05-03T06:38:51.151Z,3.90
2023-05-03T06:39:51.152Z,3.60
2023-05-03T06:40:51.142Z,3.70
2023-05-03T06:41:51.119Z,4.00
2023-05-03T06:42:51.104Z,3.90
2023-05-03T06:43:51.115Z,3.80
2023-05-03T06:44:51.074Z,4.00
2023-05-03T06:45:51.093Z,3.70
2023-05-03T06:46:51.161Z,3.80
2023-05-03T06:47:51.077Z,3.90
2023-05-03T06:48:51.089Z,4.10
2023-05-03T06:49:51.021Z,3.50
2023-05-03T06:50:51.034Z,3.40
2023-05-03T06:51:51.006Z,3.70
2023-05-03T06:52:50.980Z,3.20
2023-05-03T06:53:50.970Z,4.00
2023-05-03T06:54:50.958Z,3.60
2023-05-03T06:55:50.971Z,3.50
2023-05-03T06:56:50.936Z,3.60
2023-05-03T06:57:50.931Z,3.90
2023-05-03T06:58:50.998Z,3.80
2023-05-03T06:59:50.917Z,3.40
2023-05-03T07:00:50.913Z,3.50
2023-05-03T07:01:50.916Z,3.70
2023-05-03T07:02:50.994Z,3.60
2023-05-03T07:03:50.964Z,2.80
2023-05-03T07:04:50.841Z,3.10
2023-05-03T07:05:50.969Z,3.30
2023-05-03T07:06:56.401Z,3.40
2023-05-03T07:07:50.827Z,3.50
2023-05-03T07:08:50.798Z,3.20
2023-05-03T07:09:50.893Z,3.40
2023-05-03T07:10:50.799Z,3.30
2023-05-03T07:11:50.785Z,2.80
2023-05-03T07:12:50.786Z,3.00
2023-05-03T07:13:50.750Z,3.00
2023-05-03T07:14:50.776Z,2.70
2023-05-03T07:15:50.773Z,2.80
2023-05-03T07:16:50.719Z,2.80
2023-05-03T07:17:50.731Z,3.30
2023-05-03T07:18:50.763Z,2.70
2023-05-03T07:19:50.682Z,3.20
2023-05-03T07:20:50.690Z,2.80
2023-05-03T07:21:50.701Z,2.80
2023-05-03T07:22:50.686Z,2.50
2023-05-03T07:23:50.636Z,3.10
2023-05-03T07:24:50.800Z,2.80
2023-05-03T07:25:50.626Z,2.40
2023-05-03T07:26:50.683Z,2.40
2023-05-03T07:27:50.665Z,2.70
2023-05-03T07:28:50.570Z,3.10
2023-05-03T07:29:50.650Z,3.00
2023-05-03T07:30:50.569Z,3.00
2023-05-03T07:31:53.299Z,2.40
2023-05-03T07:32:50.638Z,2.20
2023-05-03T07:33:50.625Z,2.60
2023-05-03T07:34:50.518Z,2.30
2023-05-03T07:35:50.597Z,2.80
2023-05-03T07:36:50.480Z,2.40
2023-05-03T07:37:50.487Z,2.70
2023-05-03T07:38:50.471Z,2.40
2023-05-03T07:39:50.455Z,2.60
2023-05-03T07:40:50.452Z,2.70
2023-05-03T07:41:50.422Z,2.60
2023-05-03T07:42:50.478Z,2.60
2023-05-03T07:43:50.400Z,2.50
2023-05-03T07:44:50.401Z,2.50
2023-05-03T07:45:50.428Z,2.90
2023-05-03T07:46:50.367Z,2.80
2023-05-03T07:47:50.395Z,2.70
2023-05-03T07:48:50.339Z,2.80
2023-05-03T07:49:50.344Z,2.90
2023-05-03T07:50:50.336Z,2.90
2023-05-03T07:51:50.309Z,2.60
2023-05-03T07:52:50.301Z,2.80
2023-05-03T07:53:50.301Z,3.00
2023-05-03T07:54:50.282Z,2.70
2023-05-03T07:55:50.296Z,2.50
2023-05-03T07:56:50.247Z,2.70
2023-05-03T07:57:50.247Z,2.20
2023-05-03T07:58:53.981Z,2.40
2023-05-03T07:59:50.244Z,2.50
2023-05-03T08:00:50.226Z,2.60
2023-05-03T08:01:50.208Z,2.50
2023-05-03T08:02:50.252Z,2.70
2023-05-03T08:03:50.315Z,2.50
2023-05-03T08:04:50.475Z,2.70
2023-05-03T08:05:50.420Z,2.70
2023-05-03T08:06:50.217Z,2.90
2023-05-03T08:07:50.138Z,2.30
2023-05-03T08:08:50.111Z,2.00
2023-05-03T08:09:50.107Z,2.00
2023-05-03T08:10:50.119Z,2.20
2023-05-03T08:11:50.093Z,2.00
2023-05-03T08:12:50.071Z,2.00
2023-05-03T08:13:50.089Z,2.10
2023-05-03T08:14:50.068Z,2.20
2023-05-03T08:15:50.126Z,2.30
2023-05-03T08:16:50.111Z,2.40
2023-05-03T08:17:50.044Z,2.50
2023-05-03T08:18:50.024Z,2.60
2023-05-03T08:19:50.012Z,2.70
2023-05-03T08:20:49.994Z,2.50
2023-05-03T08:21:49.971Z,2.60
2023-05-03T08:22:49.958Z,2.60
2023-05-03T08:23:49.971Z,2.70
2023-05-03T08:24:49.938Z,2.70
2023-05-03T08:25:49.967Z,2.70
2023-05-03T08:26:49.921Z,3.40
2023-05-03T08:27:49.924Z,2.60
2023-05-03T08:28:49.993Z,2.40
2023-05-03T08:29:49.910Z,2.50
2023-05-03T08:30:49.902Z,2.80
2023-05-03T08:31:49.957Z,2.60
2023-05-03T08:32:49.893Z,3.10
2023-05-03T08:33:49.835Z,2.80
2023-05-03T08:34:49.825Z,2.40
2023-05-03T08:35:49.835Z,3.00
2023-05-03T08:36:49.822Z,3.00
2023-05-03T08:37:49.798Z,2.70
2023-05-03T08:38:49.778Z,3.00
2023-05-03T08:39:49.791Z,2.80
2023-05-03T08:40:49.792Z,3.20
2023-05-03T08:41:49.748Z,3.00
2023-05-03T08:42:49.730Z,2.50
2023-05-03T08:43:49.782Z,3.10
2023-05-03T08:44:49.707Z,2.80
2023-05-03T08:45:49.732Z,2.90
2023-05-03T08:46:49.752Z,3.00
2023-05-03T08:47:49.730Z,2.80
2023-05-03T08:48:49.658Z,2.80
2023-05-03T08:49:49.660Z,2.90
2023-05-03T08:50:49.660Z,3.20
2023-05-03T08:51:49.646Z,3.30
2023-05-03T08:52:49.613Z,3.30
2023-05-03T08:53:49.628Z,2.80
2023-05-03T08:54:49.596Z,3.00
2023-05-03T08:55:49.608Z,3.30
2023-05-03T08:56:49.583Z,3.00
2023-05-03T08:57:49.596Z,3.20
2023-05-03T08:58:49.548Z,3.00
2023-05-03T08:59:49.531Z,3.00
2023-05-03T09:00:49.555Z,3.40
2023-05-03T09:01:49.555Z,3.10
2023-05-03T09:02:49.591Z,3.30
2023-05-03T09:03:49.698Z,3.10
2023-05-03T09:04:49.478Z,3.30
2023-05-03T09:05:49.483Z,3.00
2023-05-03T09:06:49.570Z,3.20
2023-05-03T09:07:49.435Z,3.00
2023-05-03T09:08:49.440Z,3.00
2023-05-03T09:09:49.416Z,2.70
2023-05-03T09:10:49.446Z,3.50
2023-05-03T09:11:49.387Z,2.90
2023-05-03T09:12:49.397Z,3.20
2023-05-03T09:13:49.365Z,3.30
2023-05-03T09:14:49.359Z,3.10
2023-05-03T09:15:49.373Z,3.20
2023-05-03T09:16:49.360Z,2.90
2023-05-03T09:17:49.394Z,2.80
2023-05-03T09:18:49.327Z,3.40
2023-05-03T09:19:49.303Z,3.30
2023-05-03T09:20:49.314Z,3.30
2023-05-03T09:21:49.310Z,3.10
2023-05-03T09:22:49.275Z,2.80
2023-05-03T09:23:49.256Z,3.00
2023-05-03T09:24:49.253Z,3.00
2023-05-03T09:25:49.273Z,3.10
2023-05-03T09:26:49.232Z,2.60
2023-05-03T09:27:49.213Z,2.70
2023-05-03T09:28:49.208Z,3.00
2023-05-03T09:29:49.189Z,3.00
2023-05-03T09:30:49.213Z,3.20
2023-05-03T09:31:49.193Z,2.80
2023-05-03T09:32:49.209Z,2.90
2023-05-03T09:33:49.146Z,3.10
2023-05-03T09:34:49.143Z,2.80
2023-05-03T09:35:49.148Z,3.00
2023-05-03T09:36:49.117Z,2.70
2023-05-03T09:37:49.102Z,2.90
2023-05-03T09:38:49.098Z,2.70
2023-05-03T09:39:49.084Z,3.10
2023-05-03T09:40:49.105Z,3.00
2023-05-03T09:41:49.060Z,2.60
2023-05-03T09:42:49.052Z,3.20
2023-05-03T09:43:49.035Z,3.30
2023-05-03T09:44:49.044Z,2.90
2023-05-03T09:45:49.065Z,3.00
2023-05-03T09:46:49.011Z,2.80
2023-05-03T09:47:49.019Z,2.80
2023-05-03T09:48:48.986Z,2.60
2023-05-03T09:49:48.968Z,2.60
2023-05-03T09:50:48.987Z,2.40
2023-05-03T09:51:48.961Z,2.60
2023-05-03T09:52:48.940Z,2.70
2023-05-03T09:53:48.929Z,3.00
2023-05-03T09:54:48.913Z,2.70
2023-05-03T09:55:48.926Z,2.90
2023-05-03T09:56:48.895Z,2.70
2023-05-03T09:57:48.878Z,3.10
2023-05-03T09:58:48.869Z,2.90
2023-05-03T09:59:48.855Z,3.00
2023-05-03T10:00:51.014Z,2.80
2023-05-03T10:01:48.998Z,2.60
2023-05-03T10:02:48.868Z,2.80
2023-05-03T10:03:48.867Z,2.70
2023-05-03T10:04:48.798Z,2.60
2023-05-03T10:05:48.814Z,2.60
2023-05-03T10:06:48.825Z,2.70
2023-05-03T10:07:48.756Z,2.40
2023-05-03T10:08:48.759Z,2.60
2023-05-03T10:09:48.761Z,2.60
2023-05-03T10:10:48.758Z,2.20
2023-05-03T10:11:48.713Z,2.40
2023-05-03T10:12:48.710Z,2.30
2023-05-03T10:13:48.683Z,2.10
2023-05-03T10:14:48.928Z,2.10
2023-05-03T10:15:48.705Z,2.10
2023-05-03T10:16:48.658Z,2.70
2023-05-03T10:17:48.865Z,2.70
2023-05-03T10:18:48.642Z,2.80
2023-05-03T10:19:48.620Z,2.50
2023-05-03T10:20:48.639Z,2.70
2023-05-03T10:21:48.603Z,2.90
2023-05-03T10:22:48.593Z,2.30
2023-05-03T10:23:48.578Z,2.60
2023-05-03T10:24:48.569Z,2.70
2023-05-03T10:25:48.580Z,2.50
2023-05-03T10:26:48.549Z,2.40
2023-05-03T10:27:48.552Z,2.40
2023-05-03T10:28:48.524Z,2.20
2023-05-03T10:29:48.518Z,2.40
2023-05-03T10:30:48.532Z,2.70
2023-05-03T10:31:48.670Z,2.70
2023-05-03T10:32:48.528Z,2.60
2023-05-03T10:33:48.479Z,3.20
2023-05-03T10:34:48.459Z,2.70
2023-05-03T10:35:48.468Z,3.00
2023-05-03T10:36:50.087Z,2.50
2023-05-03T10:37:48.417Z,2.90
2023-05-03T10:38:48.407Z,2.60
2023-05-03T10:39:48.385Z,2.60
2023-05-03T10:40:48.416Z,2.80
2023-05-03T10:41:48.378Z,2.50
2023-05-03T10:42:48.362Z,2.90
2023-05-03T10:43:48.377Z,2.70
2023-05-03T10:44:48.341Z,2.70
2023-05-03T10:45:48.946Z,2.60
2023-05-03T10:46:48.358Z,2.60
2023-05-03T10:47:48.343Z,2.80
2023-05-03T10:48:48.300Z,2.40
2023-05-03T10:49:48.275Z,2.40
2023-05-03T10:50:48.294Z,3.10
2023-05-03T10:51:48.262Z,3.00
2023-05-03T10:52:48.245Z,2.60
2023-05-03T10:53:48.233Z,2.60
2023-05-03T10:54:48.225Z,2.50
2023-05-03T10:55:48.230Z,2.50
2023-05-03T10:56:48.208Z,3.00
2023-05-03T10:57:48.184Z,2.50
2023-05-03T10:58:48.175Z,2.80
2023-05-03T10:59:48.165Z,2.70
2023-05-03T11:00:48.173Z,2.70
2023-05-03T11:01:48.188Z,2.80
2023-05-03T11:02:48.166Z,2.90
2023-05-03T11:03:48.123Z,3.10
2023-05-03T11:04:48.142Z,2.80
2023-05-03T11:05:48.146Z,2.60
2023-05-03T11:06:48.103Z,2.70
2023-05-03T11:07:48.072Z,3.00
2023-05-03T11:08:48.066Z,2.60
2023-05-03T11:09:48.048Z,2.50
2023-05-03T11:10:48.069Z,2.60
2023-05-03T11:11:48.031Z,2.90
2023-05-03T11:12:48.014Z,2.70
2023-05-03T11:13:48.019Z,3.10
2023-05-03T11:14:47.992Z,2.70
2023-05-03T11:15:48.443Z,3.00
2023-05-03T11:16:48.369Z,2.90
2023-05-03T11:17:47.974Z,2.80
2023-05-03T11:18:47.948Z,3.20
2023-05-03T11:19:47.932Z,3.10
2023-05-03T11:20:47.956Z,2.90
2023-05-03T11:21:48.555Z,2.80
2023-05-03T11:22:47.902Z,3.00
2023-05-03T11:23:47.885Z,3.00
2023-05-03T11:24:47.892Z,2.70
2023-05-03T11:25:47.879Z,3.00
2023-05-03T11:26:47.854Z,2.50
2023-05-03T11:27:48.012Z,2.80
2023-05-03T11:28:47.849Z,3.10
2023-05-03T11:29:47.821Z,2.80
2023-05-03T11:30:47.837Z,2.90
2023-05-03T11:31:47.819Z,3.10
2023-05-03T11:32:47.854Z,2.40
2023-05-03T11:33:48.175Z,2.50
2023-05-03T11:34:47.766Z,3.10
2023-05-03T11:35:47.795Z,2.60
2023-05-03T11:36:47.768Z,2.70
2023-05-03T11:37:47.742Z,3.00
2023-05-03T11:38:47.726Z,2.90
2023-05-03T11:39:47.706Z,2.90
2023-05-03T11:40:47.737Z,3.00
2023-05-03T11:41:47.681Z,3.30
2023-05-03T11:42:47.682Z,3.10
2023-05-03T11:43:48.416Z,3.00
2023-05-03T11:44:47.711Z,3.00
2023-05-03T11:45:47.777Z,3.40
2023-05-03T11:46:48.095Z,3.20
2023-05-03T11:47:47.664Z,2.70
2023-05-03T11:48:47.621Z,3.30
2023-05-03T11:49:47.618Z,3.30
2023-05-03T11:50:47.662Z,3.60
2023-05-03T11:51:49.858Z,2.70
2023-05-03T11:52:47.554Z,3.10
2023-05-03T11:53:47.550Z,3.30
2023-05-03T11:54:47.545Z,3.20
2023-05-03T11:55:47.546Z,3.20
2023-05-03T11:56:47.572Z,3.50
2023-05-03T11:57:47.502Z,3.10
2023-05-03T11:58:47.553Z,3.00
2023-05-03T11:59:47.483Z,3.10
2023-05-03T12:00:47.544Z,3.70
2023-05-03T12:01:47.523Z,3.20
2023-05-03T12:02:47.560Z,3.20
2023-05-03T12:03:47.606Z,2.70
2023-05-03T12:04:48.027Z,3.10
2023-05-03T12:05:48.164Z,3.30
2023-05-03T12:06:48.701Z,3.10
2023-05-03T12:07:47.945Z,3.40
2023-05-03T12:08:47.550Z,3.40
2023-05-03T12:09:59.389Z,3.30
2023-05-03T12:10:48.664Z,3.30
2023-05-03T12:11:48.044Z,3.20
2023-05-03T12:12:49.553Z,3.10
2023-05-03T12:13:48.011Z,3.70
2023-05-03T12:14:47.496Z,3.40
2023-05-03T12:15:55.006Z,3.20
2023-05-03T12:16:47.479Z,3.50
2023-05-03T12:17:49.950Z,3.40
2023-05-03T12:18:47.808Z,3.40
2023-05-03T12:19:48.944Z,3.40
2023-05-03T12:21:55.424Z,3.60
2023-05-03T12:22:49.681Z,3.80
2023-05-03T12:23:50.020Z,3.80
2023-05-03T12:24:49.336Z,3.70
2023-05-03T12:25:49.256Z,3.80
2023-05-03T12:27:54.348Z,3.70
2023-05-03T12:28:47.239Z,4.00
2023-05-03T12:29:47.728Z,3.90
2023-05-03T12:30:47.277Z,4.20
2023-05-03T12:31:49.327Z,3.50
2023-05-03T12:32:47.272Z,4.00
2023-05-03T12:34:05.823Z,3.80
2023-05-03T12:34:47.437Z,4.20
2023-05-03T12:35:48.323Z,3.50
2023-05-03T12:36:49.149Z,3.90
2023-05-03T12:37:49.565Z,4.00
2023-05-03T12:38:49.697Z,4.20
2023-05-03T12:39:53.865Z,3.70
2023-05-03T12:40:47.247Z,3.70
2023-05-03T12:42:47.055Z,4.30
2023-05-03T12:43:47.046Z,4.40
2023-05-03T12:44:48.264Z,4.40
2023-05-03T12:45:56.039Z,3.70
2023-05-03T12:46:47.066Z,4.30
2023-05-03T12:47:49.990Z,3.70
2023-05-03T12:48:47.162Z,4.00
2023-05-03T12:49:47.067Z,4.80
2023-05-03T12:50:49.914Z,3.80
2023-05-03T12:51:58.042Z,3.60
2023-05-03T12:52:47.122Z,3.50
2023-05-03T12:53:47.507Z,4.70
2023-05-03T12:54:48.823Z,4.10
2023-05-03T12:55:51.369Z,3.70
2023-05-03T12:56:48.258Z,4.20
2023-05-03T12:57:59.046Z,3.90
2023-05-03T12:59:11.888Z,4.50
2023-05-03T12:59:52.146Z,5.10
2023-05-03T13:01:15.789Z,4.60
2023-05-03T13:02:41.562Z,4.90
2023-05-03T13:03:31.925Z,5.10
2023-05-03T13:04:03.041Z,4.50
2023-05-03T13:05:47.301Z,5.10
2023-05-03T13:06:47.486Z,3.80
2023-05-03T13:07:51.871Z,4.70
2023-05-03T13:08:50.031Z,4.80
2023-05-03T13:10:46.778Z,4.40
2023-05-03T13:11:48.307Z,5.00
2023-05-03T13:12:46.677Z,4.50
2023-05-03T13:13:46.685Z,4.60
2023-05-03T13:14:46.654Z,5.00
2023-05-03T13:15:46.666Z,5.00
2023-05-03T13:16:46.715Z,5.00
2023-05-03T13:17:48.056Z,4.50
2023-05-03T13:18:46.585Z,4.80
2023-05-03T13:19:46.604Z,4.30
2023-05-03T13:20:46.590Z,4.10
2023-05-03T13:21:46.562Z,4.50
2023-05-03T13:22:46.550Z,4.80
2023-05-03T13:23:47.910Z,4.50